createdAt,value
2023-06-17T00:00:57.006Z,101104.00
2023-06-17T00:03:25.736Z,101102.00
2023-06-17T00:05:53.078Z,101098.81
2023-06-17T00:08:20.460Z,101092.47
2023-06-17T00:10:48.145Z,101098.72
2023-06-17T00:13:15.513Z,101099.38
2023-06-17T00:15:42.758Z,101098.34
2023-06-17T00:18:10.042Z,101086.81
2023-06-17T00:20:38.742Z,101094.31
2023-06-17T00:23:05.979Z,101086.31
2023-06-17T00:25:33.240Z,101097.16
2023-06-17T00:28:00.495Z,101092.47
2023-06-17T00:30:27.721Z,101090.13
2023-06-17T00:32:55.184Z,101090.81
2023-06-17T00:35:22.740Z,101095.00
2023-06-17T00:37:51.382Z,101090.34
2023-06-17T00:40:19.025Z,101087.34
2023-06-17T00:42:46.418Z,101082.69
2023-06-17T00:45:13.542Z,101088.97
2023-06-17T00:47:41.782Z,101086.66
2023-06-17T00:50:10.528Z,101084.16
2023-06-17T00:52:41.967Z,101087.72
2023-06-17T00:55:12.094Z,101081.53
2023-06-17T00:57:40.222Z,101083.72
2023-06-17T01:00:09.001Z,101076.53
2023-06-17T01:02:36.454Z,101070.03
2023-06-17T01:05:04.005Z,101071.69
2023-06-17T01:07:39.465Z,101066.72
2023-06-17T01:10:13.189Z,101067.72
2023-06-17T01:12:43.533Z,101064.06
2023-06-17T01:15:12.539Z,101065.06
2023-06-17T01:17:40.950Z,101066.69
2023-06-17T01:20:09.433Z,101067.19
2023-06-17T01:22:38.822Z,101066.00
2023-06-17T01:25:09.015Z,101066.66
2023-06-17T01:27:36.413Z,101060.84
2023-06-17T01:30:04.205Z,101066.16
2023-06-17T01:32:31.651Z,101072.81
2023-06-17T01:35:03.760Z,101070.50
2023-06-17T01:37:38.399Z,101074.50
2023-06-17T01:40:11.382Z,101068.81
2023-06-17T01:42:44.576Z,101071.31
2023-06-17T01:45:13.850Z,101078.59
2023-06-17T01:47:41.621Z,101078.47
2023-06-17T01:50:09.814Z,101082.25
2023-06-17T01:52:38.998Z,101075.25
2023-06-17T01:55:09.383Z,101074.06
2023-06-17T01:57:37.046Z,101065.06
2023-06-17T02:00:05.287Z,101064.59
2023-06-17T02:02:32.874Z,101067.41
2023-06-17T02:05:00.198Z,101062.91
2023-06-17T02:07:27.600Z,101062.06
2023-06-17T02:09:54.909Z,101071.88
2023-06-17T02:12:23.670Z,101057.88
2023-06-17T02:14:50.949Z,101059.22
2023-06-17T02:17:18.273Z,101058.03
2023-06-17T02:19:47.117Z,101061.22
2023-06-17T02:22:14.459Z,101055.22
2023-06-17T02:24:41.959Z,101059.06
2023-06-17T02:27:09.277Z,101052.25
2023-06-17T02:29:38.225Z,101055.47
2023-06-17T02:32:08.377Z,101059.25
2023-06-17T02:34:37.891Z,101054.22
2023-06-17T02:37:05.610Z,101049.56
2023-06-17T02:39:32.887Z,101047.72
2023-06-17T02:42:00.245Z,101050.44
2023-06-17T02:44:27.599Z,101058.13
2023-06-17T02:49:25.669Z,101059.91
2023-06-17T02:51:52.983Z,101056.56
2023-06-17T02:54:20.476Z,101056.22
2023-06-17T02:56:47.778Z,101060.38
2023-06-17T02:59:15.806Z,101054.69
2023-06-17T03:01:43.264Z,101054.53
2023-06-17T03:04:11.424Z,101049.56
2023-06-17T03:06:40.956Z,101042.56
2023-06-17T03:09:08.583Z,101055.06
2023-06-17T03:11:36.725Z,101058.38
2023-06-17T03:14:04.591Z,101053.91
2023-06-17T03:16:32.363Z,101051.25
2023-06-17T03:18:59.632Z,101050.59
2023-06-17T03:21:27.120Z,101054.41
2023-06-17T03:23:57.512Z,101053.25
2023-06-17T03:26:24.835Z,101050.59
2023-06-17T03:28:52.623Z,101048.31
2023-06-17T03:31:21.207Z,101050.66
2023-06-17T03:33:51.852Z,101053.00
2023-06-17T03:36:19.257Z,101053.00
2023-06-17T03:38:46.694Z,101050.16
2023-06-17T03:41:16.867Z,101053.00
2023-06-17T03:43:44.434Z,101057.44
2023-06-17T03:46:11.792Z,101061.25
2023-06-17T03:48:40.086Z,101059.31
2023-06-17T03:51:07.448Z,101056.81
2023-06-17T03:53:34.996Z,101058.00
2023-06-17T03:56:02.364Z,101056.66
2023-06-17T03:58:31.023Z,101056.16
2023-06-17T04:00:59.316Z,101061.47
2023-06-17T04:03:26.903Z,101065.28
2023-06-17T04:05:54.229Z,101060.59
2023-06-17T04:08:22.739Z,101062.31
2023-06-17T04:10:50.091Z,101063.00
2023-06-17T04:13:17.651Z,101063.19
2023-06-17T04:15:47.938Z,101061.31
2023-06-17T04:18:15.283Z,101059.66
2023-06-17T04:20:42.845Z,101060.16
2023-06-17T04:23:10.131Z,101059.19
2023-06-17T04:25:38.206Z,101063.38
2023-06-17T04:28:05.878Z,101060.03
2023-06-17T04:30:33.486Z,101063.56
2023-06-17T04:33:02.270Z,101070.38
2023-06-17T04:35:29.862Z,101071.03
2023-06-17T04:37:57.426Z,101062.53
2023-06-17T04:40:25.773Z,101062.88
2023-06-17T04:42:53.715Z,101063.38
2023-06-17T04:45:20.798Z,101070.41
2023-06-17T04:47:48.206Z,101068.72
2023-06-17T04:50:18.637Z,101071.41
2023-06-17T04:52:47.290Z,101071.72
2023-06-17T04:55:14.696Z,101075.41
2023-06-17T04:57:42.714Z,101077.06
2023-06-17T05:00:11.119Z,101074.56
2023-06-17T05:02:38.486Z,101080.75
2023-06-17T05:05:07.183Z,101073.56
2023-06-17T05:07:35.982Z,101074.06
2023-06-17T05:10:03.643Z,101076.75
2023-06-17T05:12:31.086Z,101075.59
2023-06-17T05:14:58.358Z,101071.41
2023-06-17T05:17:26.008Z,101067.41
2023-06-17T05:19:53.283Z,101070.38
2023-06-17T05:22:20.550Z,101077.38
2023-06-17T05:24:49.207Z,101074.88
2023-06-17T05:27:17.060Z,101077.38
2023-06-17T05:29:44.127Z,101081.72
2023-06-17T05:32:11.317Z,101074.72
2023-06-17T05:34:38.629Z,101073.56
2023-06-17T05:37:06.235Z,101078.22
2023-06-17T05:39:33.537Z,101076.22
2023-06-17T05:42:02.342Z,101073.00
2023-06-17T05:44:29.614Z,101081.84
2023-06-17T05:46:56.850Z,101074.66
2023-06-17T05:49:24.113Z,101073.66
2023-06-17T05:51:51.424Z,101076.16
2023-06-17T05:54:18.752Z,101082.00
2023-06-17T05:56:46.024Z,101076.63
2023-06-17T05:59:16.695Z,101083.97
2023-06-17T06:01:45.437Z,101086.75
2023-06-17T06:04:12.859Z,101081.97
2023-06-17T06:06:40.248Z,101090.50
2023-06-17T06:09:07.551Z,101079.97
2023-06-17T06:11:34.966Z,101085.16
2023-06-17T06:14:02.234Z,101085.56
2023-06-17T06:16:30.980Z,101090.72
2023-06-17T06:18:58.315Z,101085.66
2023-06-17T06:21:25.544Z,101083.78
2023-06-17T06:23:53.953Z,101091.91
2023-06-17T06:26:22.972Z,101095.00
2023-06-17T06:28:50.250Z,101096.69
2023-06-17T06:31:17.572Z,101098.13
2023-06-17T06:33:46.263Z,101094.75
2023-06-17T06:36:15.117Z,101100.38
2023-06-17T06:38:42.408Z,101093.38
2023-06-17T06:41:09.681Z,101094.03
2023-06-17T06:43:36.950Z,101098.63
2023-06-17T06:46:04.316Z,101107.09
2023-06-17T06:48:31.695Z,101108.41
2023-06-17T06:51:00.394Z,101111.19
2023-06-17T06:53:28.656Z,101110.44
2023-06-17T06:55:55.907Z,101109.69
2023-06-17T06:58:23.204Z,101107.16
2023-06-17T07:00:50.545Z,101104.81
2023-06-17T07:03:17.751Z,101103.38
2023-06-17T07:05:45.040Z,101105.47
2023-06-17T07:08:13.730Z,101107.50
2023-06-17T07:10:42.335Z,101107.13
2023-06-17T07:13:09.964Z,101103.50
2023-06-17T07:15:37.378Z,101107.72
2023-06-17T07:18:04.847Z,101096.63
2023-06-17T07:20:32.090Z,101102.94
2023-06-17T07:22:59.350Z,101099.47
2023-06-17T07:25:28.013Z,101101.13
2023-06-17T07:27:55.702Z,101094.03
2023-06-17T07:30:23.191Z,101102.63
2023-06-17T07:32:50.652Z,101106.53
2023-06-17T07:35:18.844Z,101104.41
2023-06-17T07:37:46.258Z,101110.66
2023-06-17T07:40:14.500Z,101105.81
2023-06-17T07:42:43.684Z,101115.91
2023-06-17T07:45:12.330Z,101113.78
2023-06-17T07:47:39.805Z,101111.75
2023-06-17T07:50:09.132Z,101105.00
2023-06-17T07:52:36.506Z,101111.63
2023-06-17T07:55:07.744Z,101107.16
2023-06-17T07:57:35.882Z,101118.69
2023-06-17T08:00:06.037Z,101112.84
2023-06-17T08:02:33.470Z,101116.38
2023-06-17T08:05:00.970Z,101122.47
2023-06-17T08:07:28.440Z,101113.97
2023-06-17T08:09:55.877Z,101114.53
2023-06-17T08:12:23.142Z,101116.38
2023-06-17T08:14:50.742Z,101119.25
2023-06-17T08:17:19.394Z,101111.47
2023-06-17T08:19:46.968Z,101112.31
2023-06-17T08:22:14.347Z,101116.38
2023-06-17T08:24:43.445Z,101114.00
2023-06-17T08:27:11.247Z,101117.28
2023-06-17T08:29:38.598Z,101120.03
2023-06-17T08:32:06.494Z,101122.53
2023-06-17T08:34:35.235Z,101120.06
2023-06-17T08:37:02.675Z,101124.75
2023-06-17T08:39:31.227Z,101130.84
2023-06-17T08:41:58.588Z,101124.28
2023-06-17T08:44:26.768Z,101133.78
2023-06-17T08:46:57.834Z,101122.75
2023-06-17T08:49:26.355Z,101124.41
2023-06-17T08:51:56.026Z,101125.84
2023-06-17T08:54:25.352Z,101120.47
2023-06-17T08:56:52.693Z,101126.66
2023-06-17T08:59:20.022Z,101122.78
2023-06-17T09:01:52.415Z,101127.78
2023-06-17T09:04:22.076Z,101123.91
2023-06-17T09:06:49.401Z,101124.19
2023-06-17T09:09:18.122Z,101125.06
2023-06-17T09:11:52.221Z,101122.38
2023-06-17T09:14:21.417Z,101132.72
2023-06-17T09:16:50.609Z,101134.94
2023-06-17T09:19:18.347Z,101125.34
2023-06-17T09:21:46.774Z,101134.31
2023-06-17T09:24:14.152Z,101127.69
2023-06-17T09:26:44.268Z,101127.97
2023-06-17T09:29:13.146Z,101132.28
2023-06-17T09:31:50.911Z,101132.50
2023-06-17T09:34:18.505Z,101136.47
2023-06-17T09:36:47.277Z,101128.06
2023-06-17T09:39:14.613Z,101130.31
2023-06-17T09:41:44.812Z,101143.81
2023-06-17T09:44:12.706Z,101136.03
2023-06-17T09:46:39.984Z,101135.06
2023-06-17T09:49:08.211Z,101136.72
2023-06-17T09:51:37.031Z,101138.34
2023-06-17T09:54:05.184Z,101142.09
2023-06-17T09:56:33.128Z,101132.09
2023-06-17T09:59:02.131Z,101130.31
2023-06-17T10:01:29.508Z,101129.31
2023-06-17T10:03:56.954Z,101127.41
2023-06-17T10:06:26.952Z,101121.44
2023-06-17T10:08:54.618Z,101124.75
2023-06-17T10:11:21.883Z,101127.78
2023-06-17T10:13:57.115Z,101121.31
2023-06-17T10:16:29.271Z,101126.28
2023-06-17T10:19:00.057Z,101126.69
2023-06-17T10:21:30.707Z,101112.69
2023-06-17T10:24:00.578Z,101112.28
2023-06-17T10:26:29.411Z,101115.22
2023-06-17T10:29:02.687Z,101122.03
2023-06-17T10:31:32.585Z,101118.94
2023-06-17T10:34:02.127Z,101120.91
2023-06-17T10:36:29.762Z,101115.13
2023-06-17T10:38:57.288Z,101112.78
2023-06-17T10:41:54.818Z,101109.63
2023-06-17T10:44:43.041Z,101110.56
2023-06-17T10:47:22.324Z,101102.94
2023-06-17T10:49:50.248Z,101104.63
2023-06-17T10:52:18.185Z,101106.44
2023-06-17T10:54:50.053Z,101108.56
2023-06-17T10:57:28.585Z,101101.91
2023-06-17T10:59:55.894Z,101105.66
2023-06-17T11:02:24.860Z,101102.97
2023-06-17T11:04:52.409Z,101099.44
2023-06-17T11:07:26.652Z,101099.41
2023-06-17T11:09:54.316Z,101093.63
2023-06-17T11:12:21.380Z,101088.19
2023-06-17T11:14:48.568Z,101088.59
2023-06-17T11:17:16.095Z,101091.00
2023-06-17T11:19:44.622Z,101086.03
2023-06-17T11:22:12.549Z,101084.03
2023-06-17T11:24:39.915Z,101088.66
2023-06-17T11:27:07.744Z,101087.44
2023-06-17T11:29:35.079Z,101087.38
2023-06-17T11:32:02.841Z,101077.78
2023-06-17T11:34:30.110Z,101090.69
2023-06-17T11:36:59.540Z,101087.31
2023-06-17T11:39:28.860Z,101090.06
2023-06-17T11:41:56.742Z,101091.28
2023-06-17T11:44:24.044Z,101079.34
2023-06-17T11:46:54.706Z,101083.81
2023-06-17T11:49:25.127Z,101083.72
2023-06-17T11:51:52.512Z,101075.41
2023-06-17T11:54:26.883Z,101076.09
2023-06-17T11:56:54.894Z,101084.75
2023-06-17T11:59:23.094Z,101073.66
2023-06-17T12:01:50.762Z,101072.50
2023-06-17T12:04:18.233Z,101070.91
2023-06-17T12:06:47.625Z,101059.00
2023-06-17T12:09:15.576Z,101063.53
2023-06-17T12:11:44.355Z,101054.78
2023-06-17T12:14:13.170Z,101060.28
2023-06-17T12:16:41.289Z,101058.00
2023-06-17T12:19:15.511Z,101051.13
2023-06-17T12:21:42.878Z,101064.97
2023-06-17T12:24:10.187Z,101073.41
2023-06-17T12:26:37.440Z,101080.41
2023-06-17T12:29:15.865Z,101094.88
2023-06-17T12:31:52.260Z,101105.19
2023-06-17T12:34:19.571Z,101115.44
2023-06-17T12:36:46.965Z,101110.88
2023-06-17T12:39:14.310Z,101113.22
2023-06-17T12:41:41.608Z,101110.41
2023-06-17T12:44:10.338Z,101116.81
2023-06-17T12:46:37.679Z,101126.75
2023-06-17T12:49:06.162Z,101120.50
2023-06-17T12:51:33.397Z,101116.91
2023-06-17T12:54:00.665Z,101122.16
2023-06-17T12:56:28.015Z,101112.50
2023-06-17T12:58:55.319Z,101101.75
2023-06-17T13:01:23.994Z,101088.69
2023-06-17T13:03:51.352Z,101096.63
2023-06-17T13:06:18.664Z,101088.28
2023-06-17T13:08:45.907Z,101094.03
2023-06-17T13:11:13.288Z,101094.16
2023-06-17T13:13:40.557Z,101092.63
2023-06-17T13:16:07.859Z,101088.75
2023-06-17T13:18:36.715Z,101077.28
2023-06-17T13:21:04.082Z,101079.50
2023-06-17T13:23:31.497Z,101074.56
2023-06-17T13:25:58.805Z,101068.75
2023-06-17T13:28:26.170Z,101067.75
2023-06-17T13:31:01.678Z,101066.06
2023-06-17T13:33:29.055Z,101066.47
2023-06-17T13:35:57.899Z,101072.19
2023-06-17T13:38:25.257Z,101064.22
2023-06-17T13:40:52.557Z,101069.41
2023-06-17T13:43:19.840Z,101067.03
2023-06-17T13:45:47.686Z,101064.53
2023-06-17T13:48:15.011Z,101072.41
2023-06-17T13:50:42.280Z,101071.06
2023-06-17T13:53:10.937Z,101078.41
2023-06-17T13:55:38.238Z,101066.38
2023-06-17T13:58:05.547Z,101066.50
2023-06-17T14:00:32.845Z,101072.72
2023-06-17T14:03:00.242Z,101063.31
2023-06-17T14:05:27.672Z,101060.28
2023-06-17T14:07:55.003Z,101069.81
2023-06-17T14:10:24.012Z,101069.25
2023-06-17T14:12:51.528Z,101061.31
2023-06-17T14:15:18.800Z,101066.94
2023-06-17T14:17:46.099Z,101061.94
2023-06-17T14:20:13.630Z,101050.41
2023-06-17T14:22:40.924Z,101052.59
2023-06-17T14:25:08.908Z,101050.91
2023-06-17T14:27:39.109Z,101047.44
2023-06-17T14:30:09.434Z,101049.25
2023-06-17T14:32:36.793Z,101039.66
2023-06-17T14:35:04.527Z,101042.88
2023-06-17T14:37:31.856Z,101047.25
2023-06-17T14:39:59.306Z,101044.50
2023-06-17T14:42:26.606Z,101050.72
2023-06-17T14:44:55.304Z,101046.81
2023-06-17T14:47:23.384Z,101045.19
2023-06-17T14:49:50.661Z,101046.09
2023-06-17T14:52:18.135Z,101047.56
2023-06-17T14:54:45.798Z,101052.19
2023-06-17T14:57:13.049Z,101056.31
2023-06-17T14:59:40.272Z,101055.91
2023-06-17T15:02:33.000Z,101068.34
2023-06-17T15:05:00.420Z,101059.84
2023-06-17T15:07:27.672Z,101063.72
2023-06-17T15:09:54.932Z,101067.44
2023-06-17T15:12:22.295Z,101070.34
2023-06-17T15:14:49.581Z,101069.16
2023-06-17T15:17:18.263Z,101061.44
2023-06-17T15:19:45.535Z,101061.19
2023-06-17T15:22:12.915Z,101061.19
2023-06-17T15:24:40.213Z,101062.81
2023-06-17T15:27:07.599Z,101064.06
2023-06-17T15:29:34.847Z,101065.81
2023-06-17T15:32:02.086Z,101065.88
2023-06-17T15:34:30.830Z,101072.09
2023-06-17T15:36:58.098Z,101069.81
2023-06-17T15:39:26.871Z,101070.16
2023-06-17T15:41:55.321Z,101059.16
2023-06-17T15:44:22.764Z,101066.22
2023-06-17T15:46:50.673Z,101071.34
2023-06-17T15:49:18.718Z,101062.78
2023-06-17T15:51:47.339Z,101074.50
2023-06-17T15:54:14.698Z,101068.09
2023-06-17T15:56:43.946Z,101070.44
2023-06-17T15:59:11.207Z,101066.69
2023-06-17T16:01:38.550Z,101068.75
2023-06-17T16:04:33.667Z,101067.09
2023-06-17T16:07:03.949Z,101071.03
2023-06-17T16:09:32.439Z,101063.78
2023-06-17T16:12:00.160Z,101070.44
2023-06-17T16:14:28.654Z,101067.06
2023-06-17T16:16:55.921Z,101074.13
2023-06-17T16:19:23.261Z,101070.03
2023-06-17T16:21:50.557Z,101068.34
2023-06-17T16:24:19.286Z,101066.28
2023-06-17T16:26:46.582Z,101059.84
2023-06-17T16:29:13.910Z,101056.75
2023-06-17T16:31:41.212Z,101061.28
2023-06-17T16:34:08.497Z,101059.22
2023-06-17T16:36:35.779Z,101058.41
2023-06-17T16:39:03.295Z,101067.09
2023-06-17T16:41:31.947Z,101068.78
2023-06-17T16:43:59.198Z,101068.75
2023-06-17T16:46:26.443Z,101061.72
2023-06-17T16:48:53.952Z,101071.88
2023-06-17T16:51:21.302Z,101071.66
2023-06-17T16:53:48.757Z,101068.13
2023-06-17T16:56:16.141Z,101070.41
2023-06-17T16:58:44.811Z,101068.34
2023-06-17T17:01:12.158Z,101069.59
2023-06-17T17:03:39.599Z,101077.88
2023-06-17T17:06:06.895Z,101069.38
2023-06-17T17:08:34.501Z,101069.59
2023-06-17T17:11:01.687Z,101075.38
2023-06-17T17:13:39.796Z,101074.16
2023-06-17T17:16:16.711Z,101078.72
2023-06-17T17:18:44.195Z,101078.09
2023-06-17T17:21:11.456Z,101073.91
2023-06-17T17:23:39.884Z,101077.88
2023-06-17T17:26:07.562Z,101066.66
2023-06-17T17:28:34.833Z,101063.13
2023-06-17T17:31:02.633Z,101068.78
2023-06-17T17:33:31.279Z,101072.50
2023-06-17T17:35:58.502Z,101076.63
2023-06-17T17:38:25.815Z,101071.88
2023-06-17T17:40:53.279Z,101072.88
2023-06-17T17:43:20.590Z,101073.31
2023-06-17T17:45:47.940Z,101063.16
2023-06-17T17:48:15.327Z,101070.41
2023-06-17T17:50:43.973Z,101067.31
2023-06-17T17:53:11.231Z,101076.63
2023-06-17T17:55:38.551Z,101076.81
2023-06-17T17:58:05.900Z,101076.63
2023-06-17T18:00:33.256Z,101076.22
2023-06-17T18:03:00.643Z,101074.72
2023-06-17T18:05:27.978Z,101075.94
2023-06-17T18:07:56.695Z,101086.50
2023-06-17T18:10:24.261Z,101081.28
2023-06-17T18:12:51.745Z,101090.34
2023-06-17T18:15:19.058Z,101089.53
2023-06-17T18:17:46.399Z,101080.69
2023-06-17T18:20:13.754Z,101079.03
2023-06-17T18:22:41.057Z,101076.97
2023-06-17T18:25:10.720Z,101079.38
2023-06-17T18:27:38.900Z,101083.31
2023-06-17T18:30:07.550Z,101072.81
2023-06-17T18:32:34.825Z,101079.38
2023-06-17T18:35:02.084Z,101075.78
2023-06-17T18:37:29.406Z,101072.97
2023-06-17T18:39:56.701Z,101081.91
2023-06-17T18:42:25.390Z,101080.63
2023-06-17T18:44:52.712Z,101076.41
2023-06-17T18:47:20.066Z,101078.41
2023-06-17T18:49:50.435Z,101084.56
2023-06-17T18:52:17.933Z,101084.16
2023-06-17T18:54:45.201Z,101090.75
2023-06-17T18:57:12.489Z,101089.91
2023-06-17T18:59:41.107Z,101089.03
2023-06-17T19:02:08.383Z,101086.47
2023-06-17T19:04:35.679Z,101087.19
2023-06-17T19:07:04.700Z,101090.00
2023-06-17T19:09:32.134Z,101088.06
2023-06-17T19:11:59.422Z,101093.56
2023-06-17T19:14:26.732Z,101089.88
2023-06-17T19:16:55.530Z,101094.50
2023-06-17T19:19:22.904Z,101098.97
2023-06-17T19:21:50.212Z,101099.34
2023-06-17T19:24:17.571Z,101101.00
2023-06-17T19:26:44.948Z,101096.78
2023-06-17T19:29:12.317Z,101100.03
2023-06-17T19:31:39.606Z,101091.78
2023-06-17T19:34:08.249Z,101092.88
2023-06-17T19:36:35.527Z,101096.75
2023-06-17T19:39:02.784Z,101088.59
2023-06-17T19:41:30.060Z,101086.28
2023-06-17T19:43:57.380Z,101086.19
2023-06-17T19:46:25.910Z,101090.25
2023-06-17T19:48:53.292Z,101097.38
2023-06-17T19:51:21.927Z,101098.38
2023-06-17T19:53:49.202Z,101098.75
2023-06-17T19:56:16.655Z,101098.38
2023-06-17T19:58:44.112Z,101109.69
2023-06-17T20:01:11.443Z,101114.00
2023-06-17T20:03:38.848Z,101123.28
2023-06-17T20:06:06.235Z,101130.09
2023-06-17T20:08:34.886Z,101124.13
2023-06-17T20:11:02.103Z,101119.81
2023-06-17T20:13:29.388Z,101114.34
2023-06-17T20:15:56.796Z,101114.19
2023-06-17T20:18:24.151Z,101122.28
2023-06-17T20:20:51.529Z,101122.25
2023-06-17T20:23:18.832Z,101122.47
2023-06-17T20:25:47.455Z,101126.72
2023-06-17T20:28:14.684Z,101129.16
2023-06-17T20:30:41.936Z,101127.22
2023-06-17T20:33:09.460Z,101127.56
2023-06-17T20:35:36.794Z,101130.41
2023-06-17T20:38:04.049Z,101132.25
2023-06-17T20:40:31.363Z,101135.06
2023-06-17T20:43:00.007Z,101132.91
2023-06-17T20:45:27.253Z,101137.28
2023-06-17T20:47:54.584Z,101140.50
2023-06-17T20:50:22.035Z,101143.78
2023-06-17T20:52:49.377Z,101144.59
2023-06-17T20:55:16.635Z,101142.94
2023-06-17T20:57:43.913Z,101146.25
2023-06-17T21:00:14.000Z,101137.47
2023-06-17T21:02:41.394Z,101141.63
2023-06-17T21:05:08.989Z,101142.72
2023-06-17T21:07:36.382Z,101143.72
2023-06-17T21:10:04.363Z,101157.06
2023-06-17T21:12:31.897Z,101144.59
2023-06-17T21:14:59.414Z,101159.38
2023-06-17T21:17:28.079Z,101158.94
2023-06-17T21:19:56.681Z,101163.59
2023-06-17T21:22:24.005Z,101160.41
2023-06-17T21:24:51.250Z,101165.31
2023-06-17T21:27:18.826Z,101169.28
2023-06-17T21:29:46.419Z,101168.50
2023-06-17T21:32:13.671Z,101167.00
2023-06-17T21:34:44.601Z,101164.84
2023-06-17T21:37:11.841Z,101161.53
2023-06-17T21:39:39.142Z,101161.47
2023-06-17T21:42:06.617Z,101166.50
2023-06-17T21:44:34.694Z,101167.03
2023-06-17T21:47:02.139Z,101169.53
2023-06-17T21:49:29.454Z,101162.16
2023-06-17T21:51:58.109Z,101165.69
2023-06-17T21:54:25.341Z,101168.69
2023-06-17T21:56:52.661Z,101156.16
2023-06-17T21:59:19.900Z,101167.16
2023-06-17T22:01:47.225Z,101172.84
2023-06-17T22:04:14.659Z,101173.00
2023-06-17T22:06:41.891Z,101171.16
2023-06-17T22:09:10.599Z,101173.53
2023-06-17T22:11:37.908Z,101163.34
2023-06-17T22:14:05.167Z,101161.84
2023-06-17T22:16:32.457Z,101160.16
2023-06-17T22:18:59.811Z,101163.31
2023-06-17T22:21:27.074Z,101172.50
2023-06-17T22:23:54.382Z,101173.16
2023-06-17T22:26:23.170Z,101167.16
2023-06-17T22:28:50.535Z,101163.97
2023-06-17T22:31:17.888Z,101169.44
2023-06-17T22:33:45.174Z,101163.97
2023-06-17T22:36:12.548Z,101167.47
2023-06-17T22:38:39.926Z,101160.13
2023-06-17T22:41:07.357Z,101159.13
2023-06-17T22:43:36.323Z,101159.59
2023-06-17T22:46:03.865Z,101158.88
2023-06-17T22:48:31.264Z,101166.38
2023-06-17T22:50:58.524Z,101165.72
2023-06-17T22:53:25.876Z,101165.03
2023-06-17T22:55:53.142Z,101169.84
2023-06-17T22:58:20.410Z,101164.66
2023-06-17T23:00:49.258Z,101158.66
2023-06-17T23:03:16.607Z,101157.81
2023-06-17T23:05:43.974Z,101162.31
2023-06-17T23:08:11.216Z,101155.47
2023-06-17T23:10:38.528Z,101151.13
2023-06-17T23:13:05.805Z,101157.66
2023-06-17T23:15:33.466Z,101155.03
2023-06-17T23:18:02.184Z,101151.16
2023-06-17T23:20:29.703Z,101149.84
2023-06-17T23:22:56.939Z,101153.81
2023-06-17T23:25:24.144Z,101151.25
2023-06-17T23:27:51.376Z,101152.06
2023-06-17T23:30:18.786Z,101134.94
2023-06-17T23:32:46.437Z,101143.31
2023-06-17T23:35:15.306Z,101148.47
2023-06-17T23:37:42.568Z,101150.47
2023-06-17T23:40:10.420Z,101143.13
2023-06-17T23:42:37.726Z,101139.56
2023-06-17T23:45:05.714Z,101143.44
2023-06-17T23:47:32.883Z,101148.06
2023-06-17T23:50:00.233Z,101150.81
2023-06-17T23:52:28.841Z,101147.63
2023-06-17T23:54:56.335Z,101140.44
2023-06-17T23:57:23.624Z,101136.47
2023-06-17T23:59:50.884Z,101148.19
